sensor_id;sensor_type;location;lat;lon;timestamp;P1;durP1;ratioP1;P2;durP2;ratioP2
35380;SDS011;21486;51.916;8.378;2024-03-08T00:01:52;40.00;;;21.80;;
35380;SDS011;21486;51.916;8.378;2024-03-08T00:04:18;40.05;;;21.13;;
35380;SDS011;21486;51.916;8.378;2024-03-08T00:06:43;39.00;;;21.63;;
35380;SDS011;21486;51.916;8.378;2024-03-08T00:09:11;47.80;;;23.20;;
35380;SDS011;21486;51.916;8.378;2024-03-08T00:11:37;47.17;;;22.42;;
35380;SDS011;21486;51.916;8.378;2024-03-08T00:14:02;42.13;;;22.38;;
35380;SDS011;21486;51.916;8.378;2024-03-08T00:16:31;42.15;;;21.85;;
35380;SDS011;21486;51.916;8.378;2024-03-08T00:18:57;39.63;;;21.17;;
35380;SDS011;21486;51.916;8.378;2024-03-08T00:21:23;41.87;;;22.73;;
35380;SDS011;21486;51.916;8.378;2024-03-08T00:23:49;45.45;;;23.02;;
35380;SDS011;21486;51.916;8.378;2024-03-08T00:26:14;43.43;;;23.40;;
35380;SDS011;21486;51.916;8.378;2024-03-08T00:28:40;42.90;;;22.33;;
35380;SDS011;21486;51.916;8.378;2024-03-08T00:31:05;46.23;;;24.27;;
35380;SDS011;21486;51.916;8.378;2024-03-08T00:33:31;46.47;;;24.02;;
35380;SDS011;21486;51.916;8.378;2024-03-08T00:35:57;40.55;;;21.92;;
35380;SDS011;21486;51.916;8.378;2024-03-08T00:38:23;47.75;;;23.33;;
35380;SDS011;21486;51.916;8.378;2024-03-08T00:40:48;41.83;;;23.13;;
35380;SDS011;21486;51.916;8.378;2024-03-08T00:43:14;43.67;;;23.57;;
35380;SDS011;21486;51.916;8.378;2024-03-08T00:45:40;38.80;;;22.17;;
35380;SDS011;21486;51.916;8.378;2024-03-08T00:48:07;42.53;;;23.70;;
35380;SDS011;21486;51.916;8.378;2024-03-08T00:50:33;42.67;;;23.15;;
35380;SDS011;21486;51.916;8.378;2024-03-08T00:52:59;43.05;;;22.85;;
35380;SDS011;21486;51.916;8.378;2024-03-08T00:55:25;39.50;;;22.30;;
35380;SDS011;21486;51.916;8.378;2024-03-08T00:57:51;40.55;;;22.50;;
35380;SDS011;21486;51.916;8.378;2024-03-08T01:00:18;44.20;;;23.35;;
35380;SDS011;21486;51.916;8.378;2024-03-08T01:02:46;45.25;;;24.30;;
35380;SDS011;21486;51.916;8.378;2024-03-08T01:05:11;45.33;;;23.90;;
35380;SDS011;21486;51.916;8.378;2024-03-08T01:07:38;48.05;;;24.98;;
35380;SDS011;21486;51.916;8.378;2024-03-08T01:10:03;43.13;;;23.30;;
35380;SDS011;21486;51.916;8.378;2024-03-08T01:12:34;41.95;;;23.67;;
35380;SDS011;21486;51.916;8.378;2024-03-08T01:14:59;42.97;;;22.37;;
35380;SDS011;21486;51.916;8.378;2024-03-08T01:17:25;40.77;;;22.57;;
35380;SDS011;21486;51.916;8.378;2024-03-08T01:19:51;43.30;;;22.55;;
35380;SDS011;21486;51.916;8.378;2024-03-08T01:22:18;41.40;;;22.83;;
35380;SDS011;21486;51.916;8.378;2024-03-08T01:24:44;43.00;;;22.75;;
35380;SDS011;21486;51.916;8.378;2024-03-08T01:27:09;46.80;;;24.55;;
35380;SDS011;21486;51.916;8.378;2024-03-08T01:29:35;45.80;;;22.87;;
35380;SDS011;21486;51.916;8.378;2024-03-08T01:33:02;44.92;;;24.23;;
35380;SDS011;21486;51.916;8.378;2024-03-08T01:35:28;45.50;;;24.35;;
35380;SDS011;21486;51.916;8.378;2024-03-08T01:37:53;46.20;;;24.77;;
35380;SDS011;21486;51.916;8.378;2024-03-08T01:40:19;44.80;;;24.20;;
35380;SDS011;21486;51.916;8.378;2024-03-08T01:42:45;45.50;;;25.25;;
35380;SDS011;21486;51.916;8.378;2024-03-08T01:45:11;44.90;;;25.08;;
35380;SDS011;21486;51.916;8.378;2024-03-08T01:47:36;50.22;;;27.08;;
35380;SDS011;21486;51.916;8.378;2024-03-08T01:50:02;42.92;;;24.30;;
35380;SDS011;21486;51.916;8.378;2024-03-08T01:52:29;48.17;;;26.48;;
35380;SDS011;21486;51.916;8.378;2024-03-08T01:54:56;56.15;;;26.55;;
35380;SDS011;21486;51.916;8.378;2024-03-08T01:57:25;49.40;;;27.77;;
35380;SDS011;21486;51.916;8.378;2024-03-08T01:59:52;48.88;;;25.40;;
35380;SDS011;21486;51.916;8.378;2024-03-08T02:02:19;54.55;;;27.80;;
35380;SDS011;21486;51.916;8.378;2024-03-08T02:04:46;49.95;;;26.75;;
35380;SDS011;21486;51.916;8.378;2024-03-08T02:07:12;45.80;;;25.20;;
35380;SDS011;21486;51.916;8.378;2024-03-08T02:09:38;59.17;;;30.47;;
35380;SDS011;21486;51.916;8.378;2024-03-08T02:12:04;51.15;;;28.48;;
35380;SDS011;21486;51.916;8.378;2024-03-08T02:14:30;50.05;;;27.15;;
35380;SDS011;21486;51.916;8.378;2024-03-08T02:16:59;48.20;;;25.77;;
35380;SDS011;21486;51.916;8.378;2024-03-08T02:19:25;48.53;;;26.20;;
35380;SDS011;21486;51.916;8.378;2024-03-08T02:21:51;50.17;;;25.27;;
35380;SDS011;21486;51.916;8.378;2024-03-08T02:24:16;47.53;;;25.17;;
35380;SDS011;21486;51.916;8.378;2024-03-08T02:26:42;47.03;;;25.80;;
35380;SDS011;21486;51.916;8.378;2024-03-08T02:29:07;48.00;;;25.73;;
35380;SDS011;21486;51.916;8.378;2024-03-08T02:31:34;48.43;;;25.37;;
35380;SDS011;21486;51.916;8.378;2024-03-08T02:33:59;50.53;;;25.97;;
35380;SDS011;21486;51.916;8.378;2024-03-08T02:36:25;53.23;;;29.27;;
35380;SDS011;21486;51.916;8.378;2024-03-08T02:38:50;62.90;;;30.83;;
35380;SDS011;21486;51.916;8.378;2024-03-08T02:41:16;59.93;;;30.90;;
35380;SDS011;21486;51.916;8.378;2024-03-08T02:43:41;69.75;;;34.88;;
35380;SDS011;21486;51.916;8.378;2024-03-08T02:46:07;62.67;;;32.20;;
35380;SDS011;21486;51.916;8.378;2024-03-08T02:48:33;56.30;;;30.10;;
35380;SDS011;21486;51.916;8.378;2024-03-08T02:50:58;53.33;;;28.83;;
35380;SDS011;21486;51.916;8.378;2024-03-08T02:53:24;56.67;;;31.13;;
35380;SDS011;21486;51.916;8.378;2024-03-08T02:55:49;54.35;;;28.65;;
35380;SDS011;21486;51.916;8.378;2024-03-08T02:58:15;50.23;;;26.67;;
35380;SDS011;21486;51.916;8.378;2024-03-08T03:00:40;51.70;;;27.03;;
35380;SDS011;21486;51.916;8.378;2024-03-08T03:03:06;51.17;;;26.07;;
35380;SDS011;21486;51.916;8.378;2024-03-08T03:05:32;48.42;;;25.30;;
35380;SDS011;21486;51.916;8.378;2024-03-08T03:07:58;47.67;;;26.10;;
35380;SDS011;21486;51.916;8.378;2024-03-08T03:10:24;47.78;;;25.88;;
35380;SDS011;21486;51.916;8.378;2024-03-08T03:12:50;50.53;;;26.10;;
35380;SDS011;21486;51.916;8.378;2024-03-08T03:15:16;53.03;;;27.07;;
35380;SDS011;21486;51.916;8.378;2024-03-08T03:17:48;46.83;;;26.17;;
35380;SDS011;21486;51.916;8.378;2024-03-08T03:20:18;50.95;;;27.30;;
35380;SDS011;21486;51.916;8.378;2024-03-08T03:22:57;49.75;;;27.60;;
35380;SDS011;21486;51.916;8.378;2024-03-08T03:25:25;61.33;;;30.90;;
35380;SDS011;21486;51.916;8.378;2024-03-08T03:27:54;53.15;;;27.60;;
35380;SDS011;21486;51.916;8.378;2024-03-08T03:30:21;56.57;;;26.93;;
35380;SDS011;21486;51.916;8.378;2024-03-08T03:32:50;47.00;;;25.60;;
35380;SDS011;21486;51.916;8.378;2024-03-08T03:35:16;53.13;;;27.92;;
35380;SDS011;21486;51.916;8.378;2024-03-08T03:37:42;56.25;;;27.90;;
35380;SDS011;21486;51.916;8.378;2024-03-08T03:40:16;52.60;;;27.37;;
35380;SDS011;21486;51.916;8.378;2024-03-08T03:42:43;47.70;;;25.90;;
35380;SDS011;21486;51.916;8.378;2024-03-08T03:45:10;57.63;;;28.48;;
35380;SDS011;21486;51.916;8.378;2024-03-08T03:47:36;51.28;;;27.25;;
35380;SDS011;21486;51.916;8.378;2024-03-08T03:50:03;50.60;;;26.77;;
35380;SDS011;21486;51.916;8.378;2024-03-08T03:52:29;55.38;;;26.23;;
35380;SDS011;21486;51.916;8.378;2024-03-08T03:54:55;54.72;;;28.55;;
35380;SDS011;21486;51.916;8.378;2024-03-08T03:57:21;54.15;;;27.90;;
35380;SDS011;21486;51.916;8.378;2024-03-08T03:59:47;56.00;;;27.83;;
35380;SDS011;21486;51.916;8.378;2024-03-08T04:02:13;53.83;;;27.43;;
35380;SDS011;21486;51.916;8.378;2024-03-08T04:04:39;49.40;;;26.42;;
35380;SDS011;21486;51.916;8.378;2024-03-08T04:07:05;56.20;;;28.90;;
35380;SDS011;21486;51.916;8.378;2024-03-08T04:09:31;57.40;;;29.27;;
35380;SDS011;21486;51.916;8.378;2024-03-08T04:11:56;54.23;;;27.70;;
35380;SDS011;21486;51.916;8.378;2024-03-08T04:14:23;50.35;;;27.85;;
35380;SDS011;21486;51.916;8.378;2024-03-08T04:16:48;56.03;;;27.77;;
35380;SDS011;21486;51.916;8.378;2024-03-08T04:19:14;49.47;;;27.63;;
35380;SDS011;21486;51.916;8.378;2024-03-08T04:21:39;61.37;;;31.00;;
35380;SDS011;21486;51.916;8.378;2024-03-08T04:24:05;63.00;;;30.43;;
35380;SDS011;21486;51.916;8.378;2024-03-08T04:26:31;61.43;;;29.93;;
35380;SDS011;21486;51.916;8.378;2024-03-08T04:28:56;59.80;;;30.30;;
35380;SDS011;21486;51.916;8.378;2024-03-08T04:31:22;55.93;;;28.13;;
35380;SDS011;21486;51.916;8.378;2024-03-08T04:33:47;57.27;;;28.23;;
35380;SDS011;21486;51.916;8.378;2024-03-08T04:36:13;54.30;;;28.17;;
35380;SDS011;21486;51.916;8.378;2024-03-08T04:38:39;56.13;;;29.93;;
35380;SDS011;21486;51.916;8.378;2024-03-08T04:41:06;58.97;;;29.93;;
35380;SDS011;21486;51.916;8.378;2024-03-08T04:43:31;62.72;;;30.77;;
35380;SDS011;21486;51.916;8.378;2024-03-08T04:45:57;59.08;;;29.98;;
35380;SDS011;21486;51.916;8.378;2024-03-08T04:48:23;58.72;;;28.70;;
35380;SDS011;21486;51.916;8.378;2024-03-08T04:50:51;58.22;;;29.33;;
35380;SDS011;21486;51.916;8.378;2024-03-08T04:53:18;57.03;;;30.20;;
35380;SDS011;21486;51.916;8.378;2024-03-08T04:55:44;58.38;;;30.10;;
35380;SDS011;21486;51.916;8.378;2024-03-08T04:58:10;60.53;;;30.17;;
35380;SDS011;21486;51.916;8.378;2024-03-08T05:00:35;57.53;;;29.00;;
35380;SDS011;21486;51.916;8.378;2024-03-08T05:03:01;56.87;;;28.67;;
35380;SDS011;21486;51.916;8.378;2024-03-08T05:05:26;55.22;;;28.92;;
35380;SDS011;21486;51.916;8.378;2024-03-08T05:07:53;57.20;;;28.53;;
35380;SDS011;21486;51.916;8.378;2024-03-08T05:10:19;52.03;;;27.27;;
35380;SDS011;21486;51.916;8.378;2024-03-08T05:12:45;56.80;;;28.97;;
35380;SDS011;21486;51.916;8.378;2024-03-08T05:15:10;55.20;;;28.83;;
35380;SDS011;21486;51.916;8.378;2024-03-08T05:17:36;57.30;;;29.43;;
35380;SDS011;21486;51.916;8.378;2024-03-08T05:20:01;57.47;;;28.23;;
35380;SDS011;21486;51.916;8.378;2024-03-08T05:22:27;56.53;;;27.90;;
35380;SDS011;21486;51.916;8.378;2024-03-08T05:24:52;54.27;;;27.80;;
35380;SDS011;21486;51.916;8.378;2024-03-08T05:27:18;57.35;;;29.40;;
35380;SDS011;21486;51.916;8.378;2024-03-08T05:29:44;59.20;;;29.90;;
35380;SDS011;21486;51.916;8.378;2024-03-08T05:32:09;62.65;;;30.63;;
35380;SDS011;21486;51.916;8.378;2024-03-08T05:34:35;64.75;;;31.83;;
35380;SDS011;21486;51.916;8.378;2024-03-08T05:37:01;68.05;;;32.63;;
35380;SDS011;21486;51.916;8.378;2024-03-08T05:39:26;62.15;;;30.70;;
35380;SDS011;21486;51.916;8.378;2024-03-08T05:41:52;64.93;;;32.50;;
35380;SDS011;21486;51.916;8.378;2024-03-08T05:44:20;65.43;;;31.98;;
35380;SDS011;21486;51.916;8.378;2024-03-08T05:46:45;70.53;;;33.73;;
35380;SDS011;21486;51.916;8.378;2024-03-08T05:49:14;65.70;;;33.83;;
35380;SDS011;21486;51.916;8.378;2024-03-08T05:51:40;61.55;;;30.70;;
35380;SDS011;21486;51.916;8.378;2024-03-08T05:54:10;67.80;;;31.92;;
35380;SDS011;21486;51.916;8.378;2024-03-08T05:56:36;62.70;;;30.95;;
35380;SDS011;21486;51.916;8.378;2024-03-08T05:59:02;78.38;;;40.03;;
35380;SDS011;21486;51.916;8.378;2024-03-08T06:01:28;71.03;;;34.78;;
35380;SDS011;21486;51.916;8.378;2024-03-08T06:03:54;85.32;;;41.47;;
35380;SDS011;21486;51.916;8.378;2024-03-08T06:06:22;79.75;;;37.50;;
35380;SDS011;21486;51.916;8.378;2024-03-08T06:08:49;66.65;;;34.13;;
35380;SDS011;21486;51.916;8.378;2024-03-08T06:11:15;66.95;;;32.08;;
35380;SDS011;21486;51.916;8.378;2024-03-08T06:13:42;76.35;;;35.47;;
35380;SDS011;21486;51.916;8.378;2024-03-08T06:16:08;73.93;;;37.35;;
35380;SDS011;21486;51.916;8.378;2024-03-08T06:18:34;81.27;;;39.43;;
35380;SDS011;21486;51.916;8.378;2024-03-08T06:21:06;72.40;;;35.10;;
35380;SDS011;21486;51.916;8.378;2024-03-08T06:23:32;79.38;;;40.40;;
35380;SDS011;21486;51.916;8.378;2024-03-08T06:25:58;73.82;;;38.22;;
35380;SDS011;21486;51.916;8.378;2024-03-08T06:28:24;75.83;;;36.00;;
35380;SDS011;21486;51.916;8.378;2024-03-08T06:30:49;77.00;;;39.20;;
35380;SDS011;21486;51.916;8.378;2024-03-08T06:33:16;93.73;;;46.80;;
35380;SDS011;21486;51.916;8.378;2024-03-08T06:35:42;90.78;;;43.25;;
35380;SDS011;21486;51.916;8.378;2024-03-08T06:38:07;69.05;;;33.70;;
35380;SDS011;21486;51.916;8.378;2024-03-08T06:40:33;71.23;;;35.50;;
35380;SDS011;21486;51.916;8.378;2024-03-08T06:42:58;62.77;;;32.27;;
35380;SDS011;21486;51.916;8.378;2024-03-08T06:45:24;76.00;;;36.83;;
35380;SDS011;21486;51.916;8.378;2024-03-08T06:47:50;73.93;;;35.17;;
35380;SDS011;21486;51.916;8.378;2024-03-08T06:50:16;79.13;;;39.08;;
35380;SDS011;21486;51.916;8.378;2024-03-08T06:52:42;69.53;;;33.73;;
35380;SDS011;21486;51.916;8.378;2024-03-08T06:55:09;67.35;;;33.70;;
35380;SDS011;21486;51.916;8.378;2024-03-08T06:57:40;66.18;;;32.78;;
35380;SDS011;21486;51.916;8.378;2024-03-08T07:00:09;60.13;;;29.27;;
35380;SDS011;21486;51.916;8.378;2024-03-08T07:02:36;57.90;;;29.45;;
35380;SDS011;21486;51.916;8.378;2024-03-08T07:05:04;62.08;;;30.92;;
35380;SDS011;21486;51.916;8.378;2024-03-08T07:07:30;64.82;;;32.70;;
35380;SDS011;21486;51.916;8.378;2024-03-08T07:09:56;58.53;;;30.42;;
35380;SDS011;21486;51.916;8.378;2024-03-08T07:12:22;58.07;;;28.57;;
35380;SDS011;21486;51.916;8.378;2024-03-08T07:14:48;54.23;;;28.20;;
35380;SDS011;21486;51.916;8.378;2024-03-08T07:17:14;59.60;;;30.00;;
35380;SDS011;21486;51.916;8.378;2024-03-08T07:19:39;59.90;;;30.03;;
35380;SDS011;21486;51.916;8.378;2024-03-08T07:22:05;51.47;;;26.93;;
35380;SDS011;21486;51.916;8.378;2024-03-08T07:24:33;56.83;;;28.90;;
35380;SDS011;21486;51.916;8.378;2024-03-08T07:27:23;59.72;;;29.33;;
35380;SDS011;21486;51.916;8.378;2024-03-08T07:29:48;54.05;;;27.98;;
35380;SDS011;21486;51.916;8.378;2024-03-08T07:32:14;58.30;;;28.35;;
35380;SDS011;21486;51.916;8.378;2024-03-08T07:34:46;59.45;;;29.42;;
35380;SDS011;21486;51.916;8.378;2024-03-08T07:37:13;57.38;;;28.80;;
35380;SDS011;21486;51.916;8.378;2024-03-08T07:39:39;57.23;;;28.67;;
35380;SDS011;21486;51.916;8.378;2024-03-08T07:42:04;56.83;;;27.37;;
35380;SDS011;21486;51.916;8.378;2024-03-08T07:44:30;54.03;;;28.23;;
35380;SDS011;21486;51.916;8.378;2024-03-08T07:46:57;57.63;;;28.35;;
35380;SDS011;21486;51.916;8.378;2024-03-08T07:49:23;54.25;;;27.42;;
35380;SDS011;21486;51.916;8.378;2024-03-08T07:51:49;55.33;;;28.57;;
35380;SDS011;21486;51.916;8.378;2024-03-08T07:54:14;54.23;;;28.00;;
35380;SDS011;21486;51.916;8.378;2024-03-08T07:56:40;54.37;;;28.33;;
35380;SDS011;21486;51.916;8.378;2024-03-08T07:59:07;56.97;;;29.42;;
35380;SDS011;21486;51.916;8.378;2024-03-08T08:01:32;54.03;;;28.00;;
35380;SDS011;21486;51.916;8.378;2024-03-08T08:04:01;51.65;;;27.08;;
35380;SDS011;21486;51.916;8.378;2024-03-08T08:06:27;49.63;;;26.57;;
35380;SDS011;21486;51.916;8.378;2024-03-08T08:08:53;54.43;;;27.30;;
35380;SDS011;21486;51.916;8.378;2024-03-08T08:11:18;50.20;;;27.27;;
35380;SDS011;21486;51.916;8.378;2024-03-08T08:13:45;53.17;;;28.17;;
35380;SDS011;21486;51.916;8.378;2024-03-08T08:16:10;54.77;;;28.30;;
35380;SDS011;21486;51.916;8.378;2024-03-08T08:18:38;49.60;;;26.52;;
35380;SDS011;21486;51.916;8.378;2024-03-08T08:21:04;53.95;;;26.52;;
35380;SDS011;21486;51.916;8.378;2024-03-08T08:23:31;50.95;;;26.20;;
35380;SDS011;21486;51.916;8.378;2024-03-08T08:25:57;53.75;;;27.77;;
35380;SDS011;21486;51.916;8.378;2024-03-08T08:28:23;55.30;;;28.03;;
35380;SDS011;21486;51.916;8.378;2024-03-08T08:30:49;55.15;;;28.08;;
35380;SDS011;21486;51.916;8.378;2024-03-08T08:33:15;58.97;;;29.02;;
35380;SDS011;21486;51.916;8.378;2024-03-08T08:35:41;56.22;;;27.67;;
35380;SDS011;21486;51.916;8.378;2024-03-08T08:38:07;54.03;;;27.45;;
35380;SDS011;21486;51.916;8.378;2024-03-08T08:40:33;49.58;;;26.95;;
35380;SDS011;21486;51.916;8.378;2024-03-08T08:43:01;49.60;;;25.40;;
35380;SDS011;21486;51.916;8.378;2024-03-08T08:45:29;51.03;;;26.27;;
35380;SDS011;21486;51.916;8.378;2024-03-08T08:47:55;48.88;;;25.15;;
35380;SDS011;21486;51.916;8.378;2024-03-08T08:50:21;43.80;;;24.60;;
35380;SDS011;21486;51.916;8.378;2024-03-08T08:52:50;53.20;;;26.83;;
35380;SDS011;21486;51.916;8.378;2024-03-08T08:55:16;51.63;;;25.77;;
35380;SDS011;21486;51.916;8.378;2024-03-08T08:57:45;46.77;;;24.60;;
35380;SDS011;21486;51.916;8.378;2024-03-08T09:00:12;53.30;;;28.27;;
35380;SDS011;21486;51.916;8.378;2024-03-08T09:02:40;45.07;;;23.53;;
35380;SDS011;21486;51.916;8.378;2024-03-08T09:05:06;46.22;;;24.52;;
35380;SDS011;21486;51.916;8.378;2024-03-08T09:07:33;53.75;;;28.15;;
35380;SDS011;21486;51.916;8.378;2024-03-08T09:09:58;56.17;;;29.48;;
35380;SDS011;21486;51.916;8.378;2024-03-08T09:12:25;45.10;;;24.50;;
35380;SDS011;21486;51.916;8.378;2024-03-08T09:14:50;44.07;;;23.50;;
35380;SDS011;21486;51.916;8.378;2024-03-08T09:17:16;42.23;;;23.80;;
35380;SDS011;21486;51.916;8.378;2024-03-08T09:19:47;48.22;;;24.95;;
35380;SDS011;21486;51.916;8.378;2024-03-08T09:22:13;41.80;;;23.27;;
35380;SDS011;21486;51.916;8.378;2024-03-08T09:24:39;47.42;;;26.80;;
35380;SDS011;21486;51.916;8.378;2024-03-08T09:27:05;60.95;;;35.90;;
35380;SDS011;21486;51.916;8.378;2024-03-08T09:29:30;50.55;;;26.67;;
35380;SDS011;21486;51.916;8.378;2024-03-08T09:31:56;55.73;;;31.80;;
35380;SDS011;21486;51.916;8.378;2024-03-08T09:34:22;46.80;;;25.93;;
35380;SDS011;21486;51.916;8.378;2024-03-08T09:36:48;44.47;;;25.50;;
35380;SDS011;21486;51.916;8.378;2024-03-08T09:39:14;41.25;;;21.90;;
35380;SDS011;21486;51.916;8.378;2024-03-08T09:41:44;40.20;;;20.88;;
35380;SDS011;21486;51.916;8.378;2024-03-08T09:44:13;39.92;;;24.75;;
35380;SDS011;21486;51.916;8.378;2024-03-08T09:46:39;40.15;;;23.13;;
35380;SDS011;21486;51.916;8.378;2024-03-08T09:49:05;73.38;;;40.47;;
35380;SDS011;21486;51.916;8.378;2024-03-08T09:51:31;38.53;;;22.02;;
35380;SDS011;21486;51.916;8.378;2024-03-08T09:53:59;39.72;;;22.38;;
35380;SDS011;21486;51.916;8.378;2024-03-08T09:56:25;37.90;;;20.87;;
35380;SDS011;21486;51.916;8.378;2024-03-08T09:58:52;38.40;;;22.73;;
35380;SDS011;21486;51.916;8.378;2024-03-08T10:01:53;42.63;;;25.45;;
35380;SDS011;21486;51.916;8.378;2024-03-08T10:04:21;35.17;;;20.98;;
35380;SDS011;21486;51.916;8.378;2024-03-08T10:06:47;36.03;;;19.92;;
35380;SDS011;21486;51.916;8.378;2024-03-08T10:09:13;32.38;;;19.50;;
35380;SDS011;21486;51.916;8.378;2024-03-08T10:11:42;36.67;;;20.92;;
35380;SDS011;21486;51.916;8.378;2024-03-08T10:14:11;35.13;;;19.23;;
35380;SDS011;21486;51.916;8.378;2024-03-08T10:16:37;36.67;;;20.70;;
35380;SDS011;21486;51.916;8.378;2024-03-08T10:19:04;33.05;;;19.55;;
35380;SDS011;21486;51.916;8.378;2024-03-08T10:21:30;32.97;;;19.85;;
35380;SDS011;21486;51.916;8.378;2024-03-08T10:23:57;35.83;;;21.08;;
35380;SDS011;21486;51.916;8.378;2024-03-08T10:26:24;32.90;;;19.65;;
35380;SDS011;21486;51.916;8.378;2024-03-08T10:28:50;32.53;;;19.73;;
35380;SDS011;21486;51.916;8.378;2024-03-08T10:31:19;35.15;;;19.75;;
35380;SDS011;21486;51.916;8.378;2024-03-08T10:33:45;31.75;;;18.58;;
35380;SDS011;21486;51.916;8.378;2024-03-08T10:36:11;31.00;;;18.88;;
35380;SDS011;21486;51.916;8.378;2024-03-08T10:38:38;31.13;;;19.13;;
35380;SDS011;21486;51.916;8.378;2024-03-08T10:41:06;33.90;;;20.63;;
35380;SDS011;21486;51.916;8.378;2024-03-08T10:43:46;32.17;;;19.08;;
35380;SDS011;21486;51.916;8.378;2024-03-08T10:49:00;30.35;;;17.77;;
35380;SDS011;21486;51.916;8.378;2024-03-08T10:51:29;28.25;;;17.48;;
35380;SDS011;21486;51.916;8.378;2024-03-08T10:53:57;32.57;;;18.33;;
35380;SDS011;21486;51.916;8.378;2024-03-08T10:56:24;28.45;;;17.15;;
35380;SDS011;21486;51.916;8.378;2024-03-08T10:58:52;28.27;;;17.05;;
35380;SDS011;21486;51.916;8.378;2024-03-08T11:01:20;28.85;;;17.60;;
35380;SDS011;21486;51.916;8.378;2024-03-08T11:03:46;28.17;;;17.57;;
35380;SDS011;21486;51.916;8.378;2024-03-08T11:06:23;28.25;;;16.38;;
35380;SDS011;21486;51.916;8.378;2024-03-08T11:08:56;26.08;;;15.35;;
35380;SDS011;21486;51.916;8.378;2024-03-08T11:11:24;26.23;;;15.90;;
35380;SDS011;21486;51.916;8.378;2024-03-08T11:13:55;26.08;;;15.70;;
35380;SDS011;21486;51.916;8.378;2024-03-08T11:16:43;28.03;;;16.43;;
35380;SDS011;21486;51.916;8.378;2024-03-08T11:21:35;25.25;;;15.32;;
35380;SDS011;21486;51.916;8.378;2024-03-08T11:24:09;25.85;;;14.75;;
35380;SDS011;21486;51.916;8.378;2024-03-08T11:26:38;23.63;;;14.10;;
35380;SDS011;21486;51.916;8.378;2024-03-08T11:29:32;24.60;;;14.18;;
35380;SDS011;21486;51.916;8.378;2024-03-08T11:32:16;25.17;;;14.75;;
35380;SDS011;21486;51.916;8.378;2024-03-08T11:34:47;26.88;;;15.60;;
35380;SDS011;21486;51.916;8.378;2024-03-08T11:37:17;26.48;;;14.98;;
35380;SDS011;21486;51.916;8.378;2024-03-08T11:39:47;26.08;;;15.23;;
35380;SDS011;21486;51.916;8.378;2024-03-08T11:42:18;25.70;;;15.63;;
35380;SDS011;21486;51.916;8.378;2024-03-08T11:44:45;26.45;;;14.77;;
35380;SDS011;21486;51.916;8.378;2024-03-08T11:47:11;23.23;;;13.80;;
35380;SDS011;21486;51.916;8.378;2024-03-08T11:49:40;24.83;;;14.52;;
35380;SDS011;21486;51.916;8.378;2024-03-08T11:52:10;32.22;;;16.13;;
35380;SDS011;21486;51.916;8.378;2024-03-08T11:54:43;26.05;;;15.23;;
35380;SDS011;21486;51.916;8.378;2024-03-08T11:57:21;27.77;;;15.15;;
35380;SDS011;21486;51.916;8.378;2024-03-08T11:59:54;28.52;;;15.57;;
35380;SDS011;21486;51.916;8.378;2024-03-08T12:02:21;27.35;;;15.52;;
35380;SDS011;21486;51.916;8.378;2024-03-08T12:04:50;26.23;;;15.75;;
35380;SDS011;21486;51.916;8.378;2024-03-08T12:07:22;27.85;;;16.20;;
35380;SDS011;21486;51.916;8.378;2024-03-08T12:10:21;27.57;;;16.30;;
35380;SDS011;21486;51.916;8.378;2024-03-08T12:12:43;27.10;;;15.85;;
35380;SDS011;21486;51.916;8.378;2024-03-08T12:15:13;30.05;;;16.23;;
35380;SDS011;21486;51.916;8.378;2024-03-08T12:17:42;29.85;;;16.33;;
35380;SDS011;21486;51.916;8.378;2024-03-08T12:20:12;27.00;;;16.20;;
35380;SDS011;21486;51.916;8.378;2024-03-08T12:22:42;28.35;;;16.45;;
35380;SDS011;21486;51.916;8.378;2024-03-08T12:25:09;28.00;;;15.43;;
35380;SDS011;21486;51.916;8.378;2024-03-08T12:27:37;24.00;;;14.82;;
35380;SDS011;21486;51.916;8.378;2024-03-08T12:32:47;45.25;;;20.77;;
35380;SDS011;21486;51.916;8.378;2024-03-08T12:35:14;31.88;;;17.13;;
35380;SDS011;21486;51.916;8.378;2024-03-08T12:37:39;27.00;;;14.33;;
35380;SDS011;21486;51.916;8.378;2024-03-08T12:40:07;24.75;;;14.18;;
35380;SDS011;21486;51.916;8.378;2024-03-08T12:42:34;26.88;;;15.25;;
35380;SDS011;21486;51.916;8.378;2024-03-08T12:45:00;25.23;;;14.10;;
35380;SDS011;21486;51.916;8.378;2024-03-08T12:47:26;25.65;;;14.45;;
35380;SDS011;21486;51.916;8.378;2024-03-08T12:49:54;30.95;;;15.63;;
35380;SDS011;21486;51.916;8.378;2024-03-08T12:52:19;43.97;;;22.20;;
35380;SDS011;21486;51.916;8.378;2024-03-08T12:54:45;32.33;;;17.90;;
35380;SDS011;21486;51.916;8.378;2024-03-08T12:57:12;31.38;;;16.92;;
35380;SDS011;21486;51.916;8.378;2024-03-08T12:59:38;29.77;;;17.52;;
35380;SDS011;21486;51.916;8.378;2024-03-08T13:02:03;28.50;;;16.13;;
35380;SDS011;21486;51.916;8.378;2024-03-08T13:04:30;25.50;;;14.70;;
35380;SDS011;21486;51.916;8.378;2024-03-08T13:06:56;26.03;;;13.87;;
35380;SDS011;21486;51.916;8.378;2024-03-08T13:09:21;23.60;;;13.50;;
35380;SDS011;21486;51.916;8.378;2024-03-08T13:11:47;23.40;;;13.27;;
35380;SDS011;21486;51.916;8.378;2024-03-08T13:14:12;24.90;;;14.23;;
35380;SDS011;21486;51.916;8.378;2024-03-08T13:16:38;24.27;;;14.63;;
35380;SDS011;21486;51.916;8.378;2024-03-08T13:19:03;24.45;;;14.63;;
35380;SDS011;21486;51.916;8.378;2024-03-08T13:21:29;26.90;;;15.18;;
35380;SDS011;21486;51.916;8.378;2024-03-08T13:23:56;24.90;;;14.18;;
35380;SDS011;21486;51.916;8.378;2024-03-08T13:26:24;24.10;;;14.37;;
35380;SDS011;21486;51.916;8.378;2024-03-08T13:28:50;22.67;;;14.02;;
35380;SDS011;21486;51.916;8.378;2024-03-08T13:31:19;24.27;;;13.90;;
35380;SDS011;21486;51.916;8.378;2024-03-08T13:33:45;26.13;;;13.90;;
35380;SDS011;21486;51.916;8.378;2024-03-08T13:36:12;22.45;;;13.40;;
35380;SDS011;21486;51.916;8.378;2024-03-08T13:38:41;21.77;;;13.27;;
35380;SDS011;21486;51.916;8.378;2024-03-08T13:41:08;27.15;;;13.82;;
35380;SDS011;21486;51.916;8.378;2024-03-08T13:43:34;23.15;;;13.50;;
35380;SDS011;21486;51.916;8.378;2024-03-08T13:46:01;25.95;;;14.55;;
35380;SDS011;21486;51.916;8.378;2024-03-08T13:48:27;27.83;;;15.30;;
35380;SDS011;21486;51.916;8.378;2024-03-08T13:50:53;29.87;;;16.23;;
35380;SDS011;21486;51.916;8.378;2024-03-08T13:53:20;26.83;;;14.32;;
35380;SDS011;21486;51.916;8.378;2024-03-08T13:55:45;24.23;;;14.17;;
35380;SDS011;21486;51.916;8.378;2024-03-08T13:58:11;26.80;;;15.37;;
35380;SDS011;21486;51.916;8.378;2024-03-08T14:00:39;26.33;;;15.07;;
35380;SDS011;21486;51.916;8.378;2024-03-08T14:03:06;25.73;;;15.03;;
35380;SDS011;21486;51.916;8.378;2024-03-08T14:05:32;26.93;;;14.30;;
35380;SDS011;21486;51.916;8.378;2024-03-08T14:08:00;25.65;;;15.10;;
35380;SDS011;21486;51.916;8.378;2024-03-08T14:10:28;29.45;;;16.27;;
35380;SDS011;21486;51.916;8.378;2024-03-08T14:12:56;29.15;;;16.23;;
35380;SDS011;21486;51.916;8.378;2024-03-08T14:15:24;27.45;;;15.10;;
35380;SDS011;21486;51.916;8.378;2024-03-08T14:17:53;27.55;;;15.85;;
35380;SDS011;21486;51.916;8.378;2024-03-08T14:20:20;28.17;;;16.08;;
35380;SDS011;21486;51.916;8.378;2024-03-08T14:22:50;29.60;;;17.23;;
35380;SDS011;21486;51.916;8.378;2024-03-08T14:25:19;28.40;;;16.75;;
35380;SDS011;21486;51.916;8.378;2024-03-08T14:27:48;31.60;;;17.67;;
35380;SDS011;21486;51.916;8.378;2024-03-08T14:30:27;31.45;;;16.90;;